createdAt,value
2023-03-06T00:00:36.773Z,-4.32
2023-03-06T00:03:39.249Z,-4.73
2023-03-06T00:06:41.964Z,-4.79
2023-03-06T00:09:44.238Z,-4.67
2023-03-06T00:12:46.579Z,-4.47
2023-03-06T00:15:49.746Z,-4.59
2023-03-06T00:18:52.557Z,-4.63
2023-03-06T00:21:55.003Z,-4.78
2023-03-06T00:24:57.442Z,-4.53
2023-03-06T00:27:59.898Z,-4.75
2023-03-06T00:31:02.901Z,-4.94
2023-03-06T00:34:05.320Z,-5.05
2023-03-06T00:37:07.720Z,-4.96
2023-03-06T00:40:15.729Z,-4.76
2023-03-06T00:43:18.073Z,-4.70
2023-03-06T00:46:20.396Z,-4.69
2023-03-06T00:49:22.758Z,-4.86
2023-03-06T00:52:25.191Z,-5.09
2023-03-06T00:55:29.517Z,-5.36
2023-03-06T00:58:31.937Z,-5.28
2023-03-06T01:01:34.295Z,-5.31
2023-03-06T01:04:36.859Z,-5.21
2023-03-06T01:07:39.810Z,-5.40
2023-03-06T01:10:42.189Z,-5.30
2023-03-06T01:13:44.896Z,-5.12
2023-03-06T01:16:48.846Z,-4.99
2023-03-06T01:19:52.753Z,-4.99
2023-03-06T01:22:56.666Z,-5.22
2023-03-06T01:25:59.289Z,-5.29
2023-03-06T01:29:02.080Z,-5.16
2023-03-06T01:32:04.463Z,-5.08
2023-03-06T01:35:08.042Z,-5.00
2023-03-06T01:38:10.346Z,-4.99
2023-03-06T01:41:15.903Z,-5.01
2023-03-06T01:44:18.322Z,-4.98
2023-03-06T01:47:22.484Z,-5.02
2023-03-06T01:50:24.987Z,-5.16
2023-03-06T01:53:27.589Z,-5.26
2023-03-06T01:56:30.352Z,-5.20
2023-03-06T01:59:34.439Z,-5.10
2023-03-06T02:02:37.542Z,-5.14
2023-03-06T02:05:42.250Z,-5.18
2023-03-06T02:08:44.741Z,-5.11
2023-03-06T02:11:47.929Z,-5.04
2023-03-06T02:14:50.912Z,-5.20
2023-03-06T02:17:53.472Z,-5.15
2023-03-06T02:20:58.911Z,-5.24
2023-03-06T02:24:38.482Z,-5.24
2023-03-06T02:27:41.394Z,-5.22
2023-03-06T02:30:45.378Z,-5.12
2023-03-06T02:34:00.102Z,-5.19
2023-03-06T02:37:06.929Z,-5.08
2023-03-06T02:40:12.506Z,-5.11
2023-03-06T02:43:16.436Z,-5.17
2023-03-06T02:46:19.113Z,-5.23
2023-03-06T02:49:21.589Z,-5.23
2023-03-06T02:52:23.985Z,-5.18
2023-03-06T02:55:26.388Z,-5.18
2023-03-06T02:58:30.414Z,-5.19
2023-03-06T03:01:32.896Z,-5.31
2023-03-06T03:04:35.554Z,-5.20
2023-03-06T03:07:38.710Z,-5.07
2023-03-06T03:10:41.276Z,-5.15
2023-03-06T03:13:43.750Z,-5.11
2023-03-06T03:16:52.222Z,-5.04
2023-03-06T03:19:55.091Z,-5.01
2023-03-06T03:22:58.096Z,-5.06
2023-03-06T03:26:19.798Z,-5.06
2023-03-06T03:29:35.278Z,-5.08
2023-03-06T03:32:38.252Z,-5.13
2023-03-06T03:35:40.692Z,-5.13
2023-03-06T03:38:43.079Z,-5.15
2023-03-06T03:41:46.252Z,-5.21
2023-03-06T03:44:49.095Z,-5.24
2023-03-06T03:47:52.600Z,-5.35
2023-03-06T03:50:55.620Z,-5.53
2023-03-06T03:53:59.775Z,-5.51
2023-03-06T03:57:05.640Z,-5.68
2023-03-06T04:00:16.244Z,-5.70
2023-03-06T04:03:41.863Z,-5.76
2023-03-06T04:06:45.716Z,-5.86
2023-03-06T04:09:49.223Z,-5.84
2023-03-06T04:12:51.654Z,-5.84
2023-03-06T04:15:55.528Z,-5.75
2023-03-06T04:18:59.454Z,-5.61
2023-03-06T04:22:02.460Z,-5.51
2023-03-06T04:25:07.482Z,-5.32
2023-03-06T04:28:11.565Z,-5.43
2023-03-06T04:31:14.939Z,-4.90
2023-03-06T04:34:18.286Z,-4.83
2023-03-06T04:37:23.848Z,-4.75
2023-03-06T04:40:30.010Z,-4.83
2023-03-06T04:43:32.572Z,-4.93
2023-03-06T04:46:35.400Z,-4.99
2023-03-06T04:49:37.907Z,-5.10
2023-03-06T04:52:40.682Z,-5.08
2023-03-06T04:55:43.376Z,-5.22
2023-03-06T04:58:45.945Z,-5.15
2023-03-06T05:01:48.473Z,-5.13
2023-03-06T05:04:50.810Z,-5.15
2023-03-06T05:07:53.765Z,-5.20
2023-03-06T05:10:58.059Z,-5.46
2023-03-06T05:14:00.407Z,-5.58
2023-03-06T05:17:02.780Z,-5.75
2023-03-06T05:20:09.836Z,-5.66
2023-03-06T05:23:12.753Z,-5.50
2023-03-06T05:26:15.795Z,-5.45
2023-03-06T05:29:18.141Z,-5.61
2023-03-06T05:32:21.202Z,-5.65
2023-03-06T05:35:24.039Z,-5.62
2023-03-06T05:38:26.620Z,-5.79
2023-03-06T05:41:29.210Z,-5.70
2023-03-06T05:44:35.586Z,-5.63
2023-03-06T05:47:38.190Z,-5.71
2023-03-06T05:50:40.871Z,-5.80
2023-03-06T05:53:43.415Z,-5.82
2023-03-06T05:56:45.817Z,-5.74
2023-03-06T05:59:49.218Z,-5.64
2023-03-06T06:02:51.490Z,-5.51
2023-03-06T06:05:54.026Z,-5.50
2023-03-06T06:08:56.370Z,-5.65
2023-03-06T06:12:01.844Z,-5.56
2023-03-06T06:15:04.845Z,-5.41
2023-03-06T06:18:07.168Z,-5.40
2023-03-06T06:21:11.450Z,-5.34
2023-03-06T06:24:14.661Z,-5.26
2023-03-06T06:27:17.232Z,-5.15
2023-03-06T06:30:20.056Z,-5.08
2023-03-06T06:33:22.427Z,-5.04
2023-03-06T06:36:24.980Z,-4.72
2023-03-06T06:39:27.547Z,-4.46
2023-03-06T06:42:36.308Z,-4.21
2023-03-06T06:45:44.387Z,-4.01
2023-03-06T06:48:49.663Z,-3.94
2023-03-06T06:51:52.423Z,-3.78
2023-03-06T06:54:55.390Z,-3.62
2023-03-06T06:57:58.028Z,-3.46
2023-03-06T07:01:09.151Z,-3.30
2023-03-06T07:04:13.891Z,-3.00
2023-03-06T07:07:16.467Z,-3.09
2023-03-06T07:10:20.721Z,-2.79
2023-03-06T07:13:23.581Z,-2.71
2023-03-06T07:16:26.386Z,-2.68
2023-03-06T07:19:28.941Z,-2.46
2023-03-06T07:22:38.716Z,-2.73
2023-03-06T07:25:51.117Z,-2.29
2023-03-06T07:28:53.931Z,-2.22
2023-03-06T07:31:56.605Z,-1.99
2023-03-06T07:35:18.782Z,-1.94
2023-03-06T07:38:21.694Z,-1.59
2023-03-06T07:41:24.236Z,-1.62
2023-03-06T07:44:27.134Z,-1.45
2023-03-06T07:47:29.492Z,-1.59
2023-03-06T07:50:33.088Z,-1.32
2023-03-06T07:53:35.961Z,-1.70
2023-03-06T07:56:39.010Z,-1.37
2023-03-06T07:59:41.579Z,-1.32
2023-03-06T08:02:44.325Z,-1.39
2023-03-06T08:05:47.009Z,-1.24
2023-03-06T08:08:50.211Z,-1.41
2023-03-06T08:11:53.135Z,-1.06
2023-03-06T08:14:55.546Z,-0.88
2023-03-06T08:17:58.455Z,-1.22
2023-03-06T08:21:05.571Z,-0.56
2023-03-06T08:24:08.671Z,-0.51
2023-03-06T08:27:11.068Z,-0.59
2023-03-06T08:30:14.289Z,-0.69
2023-03-06T08:33:16.819Z,-0.89
2023-03-06T08:36:19.628Z,-0.76
2023-03-06T08:39:23.865Z,-0.73
2023-03-06T08:42:26.261Z,-0.56
2023-03-06T08:45:28.796Z,-0.45
2023-03-06T08:48:31.730Z,-0.51
2023-03-06T08:51:34.204Z,-0.69
2023-03-06T08:54:37.064Z,-0.38
2023-03-06T08:57:39.742Z,-0.45
2023-03-06T09:00:42.246Z,-0.40
2023-03-06T09:03:44.819Z,-0.11
2023-03-06T09:06:47.482Z,0.30
2023-03-06T09:09:50.130Z,0.86
2023-03-06T09:12:55.034Z,1.00
2023-03-06T09:15:57.745Z,1.22
2023-03-06T09:19:00.277Z,1.05
2023-03-06T09:22:02.718Z,0.47
2023-03-06T09:25:06.730Z,1.01
2023-03-06T09:28:11.620Z,1.19
2023-03-06T09:31:17.123Z,1.50
2023-03-06T09:34:19.453Z,1.60
2023-03-06T09:37:21.875Z,1.56
2023-03-06T09:40:42.463Z,2.06
2023-03-06T09:43:48.306Z,2.25
2023-03-06T09:47:12.250Z,2.20
2023-03-06T09:50:43.504Z,1.85
2023-03-06T09:54:00.093Z,1.95
2023-03-06T09:57:03.670Z,2.03
2023-03-06T10:00:12.033Z,1.81
2023-03-06T10:03:27.718Z,1.78
2023-03-06T10:06:34.047Z,2.05
2023-03-06T10:10:00.928Z,1.98
2023-03-06T10:13:07.065Z,2.41
2023-03-06T10:16:31.281Z,2.36
2023-03-06T10:19:40.354Z,2.39
2023-03-06T10:23:01.051Z,2.37
2023-03-06T10:26:14.210Z,2.45
2023-03-06T10:29:39.197Z,2.09
2023-03-06T10:32:58.060Z,2.34
2023-03-06T10:36:00.791Z,2.06
2023-03-06T10:39:07.660Z,1.94
2023-03-06T10:42:10.357Z,1.82
2023-03-06T10:45:15.449Z,1.93
2023-03-06T10:48:29.798Z,1.76
2023-03-06T10:51:32.139Z,1.82
2023-03-06T10:54:39.497Z,1.65
2023-03-06T10:57:41.797Z,1.73
2023-03-06T11:00:44.176Z,2.09
2023-03-06T11:03:47.788Z,2.16
2023-03-06T11:07:15.039Z,2.35
2023-03-06T11:10:19.631Z,2.67
2023-03-06T11:13:24.257Z,2.46
2023-03-06T11:16:30.846Z,2.39
2023-03-06T11:19:34.092Z,2.13
2023-03-06T11:22:37.069Z,2.08
2023-03-06T11:25:48.357Z,2.35
2023-03-06T11:28:59.577Z,2.26
2023-03-06T11:32:13.255Z,2.27
2023-03-06T11:35:28.605Z,2.04
2023-03-06T11:38:40.050Z,2.13
2023-03-06T11:41:54.397Z,2.13
2023-03-06T11:45:11.435Z,2.13
2023-03-06T11:48:17.654Z,2.03
2023-03-06T11:51:25.993Z,2.20
2023-03-06T11:54:28.451Z,1.91
2023-03-06T11:57:36.409Z,2.30
2023-03-06T12:00:44.684Z,2.39
2023-03-06T12:03:52.828Z,2.35
2023-03-06T12:07:01.617Z,2.67
2023-03-06T12:10:24.839Z,2.61
2023-03-06T12:13:38.363Z,2.51
2023-03-06T12:16:47.112Z,2.49
2023-03-06T12:19:59.457Z,2.99
2023-03-06T12:23:31.193Z,3.02
2023-03-06T12:26:43.519Z,3.12
2023-03-06T12:30:04.720Z,2.82
2023-03-06T12:33:18.333Z,2.74
2023-03-06T12:36:29.673Z,2.84
2023-03-06T12:39:57.557Z,2.36
2023-03-06T12:43:07.292Z,2.78
2023-03-06T12:46:16.224Z,2.79
2023-03-06T12:49:38.704Z,2.87
2023-03-06T12:52:42.993Z,3.15
2023-03-06T12:55:49.791Z,3.36
2023-03-06T12:58:54.786Z,3.02
2023-03-06T13:02:05.131Z,3.15
2023-03-06T13:05:34.934Z,3.14
2023-03-06T13:08:55.415Z,2.75
2023-03-06T13:11:57.739Z,2.74
2023-03-06T13:15:01.779Z,2.83
2023-03-06T13:18:22.266Z,2.89
2023-03-06T13:21:42.788Z,2.97
2023-03-06T13:24:45.848Z,2.96
2023-03-06T13:27:53.978Z,3.35
2023-03-06T13:30:56.468Z,3.21
2023-03-06T13:34:37.736Z,3.35
2023-03-06T13:37:49.770Z,3.23
2023-03-06T13:40:52.232Z,3.27
2023-03-06T13:43:59.430Z,3.28
2023-03-06T13:47:05.453Z,2.76
2023-03-06T13:50:38.520Z,2.55
2023-03-06T13:54:17.552Z,2.93
2023-03-06T13:57:43.928Z,2.48
2023-03-06T14:01:17.874Z,2.39
2023-03-06T14:04:44.863Z,2.56
2023-03-06T14:08:05.121Z,2.02
2023-03-06T14:11:21.053Z,1.92
2023-03-06T14:14:33.593Z,1.83
2023-03-06T14:17:39.331Z,1.93
2023-03-06T14:20:45.776Z,1.57
2023-03-06T14:24:01.119Z,1.58
2023-03-06T14:27:03.857Z,1.58
2023-03-06T14:30:15.270Z,1.76
2023-03-06T14:33:51.241Z,1.75
2023-03-06T14:37:05.735Z,1.64
2023-03-06T14:40:11.664Z,1.81
2023-03-06T14:43:27.025Z,1.71
2023-03-06T14:46:29.865Z,1.43
2023-03-06T14:49:32.251Z,1.23
2023-03-06T14:52:34.861Z,1.27
2023-03-06T14:55:37.230Z,1.30
2023-03-06T14:58:52.956Z,1.25
2023-03-06T15:02:01.050Z,1.27
2023-03-06T15:05:07.479Z,1.28
2023-03-06T15:08:10.666Z,1.14
2023-03-06T15:11:13.033Z,0.87
2023-03-06T15:14:20.011Z,0.94
2023-03-06T15:17:28.246Z,0.91
2023-03-06T15:20:36.425Z,0.83
2023-03-06T15:23:39.935Z,0.86
2023-03-06T15:26:42.358Z,0.78
2023-03-06T15:29:45.138Z,0.65
2023-03-06T15:32:47.761Z,0.46
2023-03-06T15:35:55.145Z,0.39
2023-03-06T15:38:58.525Z,0.26
2023-03-06T15:42:09.390Z,0.23
2023-03-06T15:45:30.939Z,0.37
2023-03-06T15:48:36.713Z,0.41
2023-03-06T15:51:39.174Z,0.25
2023-03-06T15:54:41.539Z,0.16
2023-03-06T15:58:04.791Z,0.07
2023-03-06T16:01:09.055Z,-0.04
2023-03-06T16:04:12.403Z,-0.14
2023-03-06T16:07:15.412Z,-0.16
2023-03-06T16:10:26.629Z,-0.19
2023-03-06T16:13:29.522Z,-0.30
2023-03-06T16:16:37.784Z,-0.41
2023-03-06T16:19:41.019Z,-0.50
2023-03-06T16:22:44.832Z,-0.65
2023-03-06T16:25:49.404Z,-0.61
2023-03-06T16:28:51.795Z,-0.68
2023-03-06T16:31:56.584Z,-0.79
2023-03-06T16:34:58.969Z,-0.85
2023-03-06T16:38:01.301Z,-0.95
2023-03-06T16:41:03.754Z,-0.96
2023-03-06T16:44:07.907Z,-1.12
2023-03-06T16:47:12.099Z,-1.13
2023-03-06T16:50:27.986Z,-1.10
2023-03-06T16:53:30.359Z,-1.24
2023-03-06T16:56:32.616Z,-1.33
2023-03-06T16:59:35.006Z,-1.36
2023-03-06T17:02:39.133Z,-1.41
2023-03-06T17:05:43.990Z,-1.45
2023-03-06T17:08:47.177Z,-1.51
2023-03-06T17:11:49.777Z,-1.56
2023-03-06T17:14:55.089Z,-1.71
2023-03-06T17:17:57.930Z,-1.67
2023-03-06T17:21:00.548Z,-1.88
2023-03-06T17:24:03.869Z,-1.93
2023-03-06T17:27:06.326Z,-1.77
2023-03-06T17:30:09.976Z,-1.61
2023-03-06T17:33:12.330Z,-1.64
2023-03-06T17:36:15.496Z,-1.46
2023-03-06T17:39:17.825Z,-1.74
2023-03-06T17:42:20.264Z,-1.70
2023-03-06T17:45:22.690Z,-1.85
2023-03-06T17:48:25.304Z,-1.81
2023-03-06T17:51:29.767Z,-1.88
2023-03-06T17:54:33.444Z,-2.03
2023-03-06T17:57:36.040Z,-1.97
2023-03-06T18:00:40.142Z,-2.27
2023-03-06T18:03:48.310Z,-2.20
2023-03-06T18:06:50.948Z,-2.03
2023-03-06T18:09:53.228Z,-2.05
2023-03-06T18:12:56.785Z,-2.01
2023-03-06T18:15:59.614Z,-2.12
2023-03-06T18:19:02.297Z,-2.18
2023-03-06T18:22:04.857Z,-2.32
2023-03-06T18:25:07.796Z,-2.33
2023-03-06T18:28:11.285Z,-2.40
2023-03-06T18:31:34.408Z,-2.42
2023-03-06T18:34:37.716Z,-2.33
2023-03-06T18:37:40.482Z,-2.34
2023-03-06T18:40:43.206Z,-2.21
2023-03-06T18:43:45.952Z,-2.19
2023-03-06T18:46:48.358Z,-2.23
2023-03-06T18:49:50.715Z,-2.39
2023-03-06T18:52:52.983Z,-2.37
2023-03-06T18:55:55.608Z,-2.32
2023-03-06T18:59:01.745Z,-2.36
2023-03-06T19:02:04.458Z,-2.37
2023-03-06T19:05:07.263Z,-2.45
2023-03-06T19:08:09.895Z,-2.55
2023-03-06T19:11:17.254Z,-2.65
2023-03-06T19:14:21.426Z,-2.76
2023-03-06T19:17:25.008Z,-2.73
2023-03-06T19:20:27.866Z,-2.68
2023-03-06T19:23:30.300Z,-2.76
2023-03-06T19:26:32.624Z,-2.73
2023-03-06T19:29:35.021Z,-2.72
2023-03-06T19:32:37.883Z,-2.76
2023-03-06T19:35:40.484Z,-2.82
2023-03-06T19:38:43.469Z,-2.91
2023-03-06T19:41:47.771Z,-2.82
2023-03-06T19:44:50.147Z,-2.88
2023-03-06T19:47:55.562Z,-2.87
2023-03-06T19:50:57.862Z,-2.95
2023-03-06T19:54:00.254Z,-2.95
2023-03-06T19:57:02.759Z,-3.03
2023-03-06T20:00:05.892Z,-3.00
2023-03-06T20:03:14.925Z,-3.03
2023-03-06T20:06:19.061Z,-2.99
2023-03-06T20:09:21.991Z,-2.96
2023-03-06T20:12:24.485Z,-2.97
2023-03-06T20:15:28.171Z,-2.98
2023-03-06T20:18:30.468Z,-2.89
2023-03-06T20:21:38.176Z,-2.93
2023-03-06T20:24:40.693Z,-2.94
2023-03-06T20:27:44.494Z,-2.98
2023-03-06T20:30:46.993Z,-2.97
2023-03-06T20:33:51.843Z,-2.96
2023-03-06T20:36:54.215Z,-2.92
2023-03-06T20:39:56.611Z,-2.92
2023-03-06T20:42:59.164Z,-3.02
2023-03-06T20:46:03.524Z,-3.03
2023-03-06T20:49:06.005Z,-3.01
2023-03-06T20:52:08.366Z,-3.09
2023-03-06T20:55:11.004Z,-3.06
2023-03-06T20:58:13.327Z,-3.30
2023-03-06T21:01:23.763Z,-3.24
2023-03-06T21:04:26.281Z,-3.23
2023-03-06T21:07:28.683Z,-3.22
2023-03-06T21:10:31.247Z,-3.26
2023-03-06T21:13:33.559Z,-3.19
2023-03-06T21:16:36.625Z,-3.26
2023-03-06T21:19:39.264Z,-3.21
2023-03-06T21:22:41.583Z,-3.32
2023-03-06T21:25:49.028Z,-3.24
2023-03-06T21:28:51.735Z,-3.24
2023-03-06T21:31:54.245Z,-3.17
2023-03-06T21:34:56.641Z,-3.28
2023-03-06T21:37:58.995Z,-3.23
2023-03-06T21:41:15.321Z,-3.22
2023-03-06T21:44:17.803Z,-3.25
2023-03-06T21:47:20.119Z,-3.25
2023-03-06T21:50:22.885Z,-3.28
2023-03-06T21:53:25.216Z,-3.30
2023-03-06T21:56:28.597Z,-3.35
2023-03-06T21:59:31.338Z,-3.35
2023-03-06T22:02:33.667Z,-3.37
2023-03-06T22:05:35.925Z,-3.29
2023-03-06T22:08:38.344Z,-3.32
2023-03-06T22:11:42.362Z,-3.35
2023-03-06T22:14:44.702Z,-3.37
2023-03-06T22:17:48.656Z,-3.41
2023-03-06T22:20:52.221Z,-3.56
2023-03-06T22:23:59.964Z,-3.56
2023-03-06T22:27:02.298Z,-3.57
2023-03-06T22:30:05.204Z,-3.60
2023-03-06T22:33:07.583Z,-3.68
2023-03-06T22:36:14.868Z,-3.58
2023-03-06T22:39:17.520Z,-3.77
2023-03-06T22:42:19.938Z,-4.00
2023-03-06T22:45:22.217Z,-3.89
2023-03-06T22:48:24.607Z,-3.88
2023-03-06T22:51:28.058Z,-3.98
2023-03-06T22:54:30.469Z,-4.00
2023-03-06T22:57:32.879Z,-3.99
2023-03-06T23:00:35.441Z,-4.06
2023-03-06T23:03:39.313Z,-4.09
2023-03-06T23:06:43.326Z,-4.11
2023-03-06T23:09:45.756Z,-4.01
2023-03-06T23:13:07.166Z,-4.07
2023-03-06T23:16:28.184Z,-4.12
2023-03-06T23:19:50.492Z,-4.20
2023-03-06T23:23:11.815Z,-4.12
2023-03-06T23:26:17.804Z,-4.22
2023-03-06T23:29:20.131Z,-4.25
2023-03-06T23:32:22.525Z,-4.14
2023-03-06T23:35:24.919Z,-4.18
2023-03-06T23:38:27.341Z,-4.27
2023-03-06T23:41:29.710Z,-4.26
2023-03-06T23:44:31.995Z,-4.29
2023-03-06T23:47:34.718Z,-4.30
2023-03-06T23:50:41.199Z,-4.27
2023-03-06T23:53:44.673Z,-4.31
2023-03-06T23:56:46.970Z,-4.31
2023-03-06T23:59:49.349Z,-4.27
